• Join FlightAware (Why Join?)
  • Login
  • US Flag 
01:27AM EDT


 

Airport Tracker/Info


-or-


 

Live Flight TrackerFlight Track Log ✈ SWA167 ✈ 05-May-2013 ✈ KDAL - KHRL

Flight Track Log - Related Links

Times and Time Zones

All times are in EDT time to prevent confusion due to time zone crossing. See the SWA167 flight status page for this flight to view local times or setup timezone preferences in your user account.

Time Position Orientation Groundspeed Altitude Reporting Facility
EDT Latitude Longitude Course Direction KTS MPH feet Rate Location/Type
05:21PM 32.8667 -96.8500 308° West 158 182 1,300  Level Dallas / Fort Worth TRACON
05:22PM 32.9000 -96.9000 308° West 215 247 3,400 2,160 Climbing Dallas / Fort Worth TRACON
05:23PM 32.8500 -96.9500 220° Southwest 257 296 5,700 2,400 Climbing Dallas / Fort Worth TRACON
05:24PM 32.7667 -96.9667 190° South 301 346 8,200 2,400 Climbing Dallas / Fort Worth TRACON
05:26PM 32.6478 -97.0289 204° Southwest 334 384 11,900 2,940 Climbing Houston Center
05:27PM 32.5325 -97.0800 200° South 366 421 15,900 3,660 Climbing Houston Center
05:27PM 32.4656 -97.1081 199° South 386 444 18,000 3,180 Climbing Fort Worth Center
05:28PM 32.3633 -97.1550 201° Southwest 393 452 21,100 2,460 Climbing Fort Worth Center
05:29PM 32.2633 -97.1897 196° South 404 465 23,000 1,320 Climbing Fort Worth Center
05:30PM 32.1317 -97.2072 186° South 425 489 23,800 1,320 Climbing Fort Worth Center
05:31PM 32.0253 -97.2222 187° South 440 506 25,700 2,160 Climbing Fort Worth Center
05:32PM 31.8856 -97.2372 185° South 446 513 28,200 2,280 Climbing Fort Worth Center
05:33PM 31.7603 -97.2544 187° South 456 525 30,300 1,980 Climbing Fort Worth Center
05:34PM 31.6328 -97.2839 191° South 462 532 32,200 1,920 Climbing Fort Worth Center
05:35PM 31.5611 -97.3158 201° Southwest 448 516 33,500 1,740 Climbing Houston Center
05:36PM 31.4447 -97.3711 202° Southwest 447 514 35,200 1,440 Climbing Houston Center
05:38PM 31.2125 -97.4814 202° Southwest 448 516 38,000 900 Climbing Houston Center
05:39PM 31.0922 -97.5264 198° South 455 524 38,000  Level Houston Center
05:40PM 30.9400 -97.5325 182° South 471 542 38,000  Level Houston Center
05:41PM 30.8103 -97.5358 181° South 468 539 38,000  Level Houston Center
05:42PM 30.6819 -97.5392 181° South 461 531 38,000  Level Houston Center
05:43PM 30.5542 -97.5425 181° South 457 526 38,000  Level Houston Center
05:44PM 30.4253 -97.5456 181° South 459 528 38,000  Level Houston Center
05:45PM 30.2736 -97.5497 181° South 463 533 38,000  Level Houston Center
05:46PM 30.1444 -97.5525 181° South 459 528 38,000  Level Houston Center
05:47PM 30.0111 -97.5583 182° South 462 532 38,000  Level Houston Center
05:48PM 29.8731 -97.5619 181° South 460 529 38,000  Level Houston Center
05:49PM 29.7458 -97.5564 178° South 468 539 38,000  Level Houston Center
05:50PM 29.6150 -97.5475 177° South 471 542 38,000  Level Houston Center
05:51PM 29.4844 -97.5408 177° South 472 543 38,000  Level Houston Center
05:52PM 29.3550 -97.5325 177° South 470 541 38,000  Level Houston Center
05:53PM 29.1972 -97.5222 177° South 473 544 38,000  Level Houston Center
05:54PM 29.0678 -97.5142 177° South 470 541 38,000  Level Houston Center
05:56PM 28.9375 -97.5075 177° South 470 541 38,000  Level Houston Center
05:57PM 28.8100 -97.5153 183° South 462 532 38,000  Level Houston Center
05:58PM 28.6833 -97.5242 184° South 457 526 38,000  Level Houston Center
05:59PM 28.5311 -97.5328 183° South 458 527 38,000  Level Houston Center
06:00PM 28.4036 -97.5389 182° South 459 528 38,000 -720 Level Houston Center
06:02PM 28.1522 -97.5539 183° South 452 520 35,800 -1,740 Descending Houston Center
06:03PM 28.0267 -97.5614 183° South 452 520 32,700 -3,000 Descending Houston Center
06:04PM 27.8833 -97.5683 182° South 460 529 29,700 -2,640 Descending Houston Center
06:05PM 27.7583 -97.5758 183° South 453 521 27,300 -2,340 Descending Houston Center
06:06PM 27.6378 -97.5819 183° South 438 504 24,900 -2,220 Descending Houston Center
06:07PM 27.5211 -97.5894 183° South 424 488 22,700 -2,400 Descending Houston Center
06:08PM 27.3853 -97.5972 183° South 409 471 20,000 -2,160 Descending Houston Center
06:10PM 27.1736 -97.6100 183° South 381 438 16,100 -1,380 Descending Houston Center
06:11PM 27.0808 -97.6133 182° South 357 411 16,000 -60 Descending Houston Center
06:12PM 26.9625 -97.6225 184° South 364 419 16,000 -960 Level Houston Center
06:13PM 26.8708 -97.6369 188° South 362 417 14,000 -2,100 Descending Houston Center
06:14PM 26.7778 -97.6542 189° South 361 415 12,200 -2,040 Descending Houston Center
06:14PM 26.7575 -97.6575 188° South 356 410 11,700 -1,980 Descending Houston Center
06:15PM 26.6803 -97.6672 186° South 352 405 10,200 -1,800 Descending Houston Center
06:15PM 26.6536 -97.6744 194° South 352 405 9,900 -1,020 Descending Houston Center
06:16PM 26.5792 -97.6856 188° South 318 366 9,100 -1,200 Descending Houston Center
06:17PM 26.4944 -97.6992 188° South 296 341 7,700 -1,740 Descending Houston Center
06:18PM 26.4136 -97.7100 187° South 293 337 5,600 -2,100 Descending Houston Center
06:18PM 26.3969 -97.7133 190° South 293 337 5,100 -1,200 Descending Houston Center
06:19PM 26.3433 -97.7217 188° South 247 284 4,400 -540 Descending Houston Center
06:19PM 26.3303 -97.7278 203° Southwest 237 273 4,600 -600 Climbing Houston Center
06:20PM 26.3067 -97.7522 223° Southwest 135 155 3,800 -1,380 Descending Houston Center
06:20PM 26.2972 -97.7436 141° Southeast 161 185 3,200 -1,800 Descending Houston Center
06:21PM 26.2814 -97.7167 123° Southeast 146 168 1,500 -1,260 Descending Houston Center
06:22PM 26.2531 -97.6858 136° Southeast 133 153 600 -720 Descending Houston Center
06:23PM 26.2250 -97.6558 136° Southeast 132 152 100 -540 Descending Houston Center
06:25PM 26.2271 -97.6551 North  Level Estimated
06:32PM 26.2271 -97.6551 North  Level Estimated